Zinder, Niger
Current Conditions -  °F | °C
As of 11:00 AM on Saturday 20 Dec 2014 (Local Time) from DRZA Reporting Station
Sand / Dust Storm Sand / Dust Storm  
Wind Chill: 79°   Ceiling: Unl
Heat Index: 79°   Visibility: 1.3mi
Dew Point: 19°   Wind: 31mph
Humidity: 11%   Direction: 100°E
Pressure: 30.09"   Gusts: NA
Location:  13.8°N, 8.99°E
Report Text: DRZA 201000Z 10027KT 2200 BLDU NSC 26/M07 Q1019
Loading
Personal Weather Stations






























Interactive Weather Map New forecast layout! Learn more

10-Day Weather Forecast

Advertisements
Track Severe Weather on mobile